createdAt,value
2019-06-01T00:02:07.410Z,13.50
2019-06-01T00:04:38.539Z,13.40
2019-06-01T00:07:08.186Z,13.40
2019-06-01T00:09:38.907Z,13.30
2019-06-01T00:12:08.614Z,13.30
2019-06-01T00:14:39.560Z,13.30
2019-06-01T00:17:09.494Z,13.30
2019-06-01T00:19:39.906Z,13.30
2019-06-01T00:22:09.392Z,13.20
2019-06-01T00:24:38.752Z,13.20
2019-06-01T00:27:08.321Z,13.20
2019-06-01T00:29:38.045Z,13.10
2019-06-01T00:32:07.370Z,13.10
2019-06-01T00:34:36.787Z,13.00
2019-06-01T00:37:06.356Z,13.00
2019-06-01T00:39:35.872Z,12.90
2019-06-01T00:42:08.423Z,12.90
2019-06-01T00:44:37.826Z,12.90
2019-06-01T00:47:07.180Z,12.90
2019-06-01T00:49:36.519Z,12.80
2019-06-01T00:52:06.125Z,12.80
2019-06-01T00:54:35.711Z,12.80
2019-06-01T00:57:06.604Z,12.70
2019-06-01T00:59:36.585Z,12.70
2019-06-01T01:02:06.190Z,12.70
2019-06-01T01:04:35.540Z,12.60
2019-06-01T01:07:05.005Z,12.60
2019-06-01T01:09:34.500Z,12.60
2019-06-01T01:12:04.090Z,12.60
2019-06-01T01:14:33.471Z,12.60
2019-06-01T01:17:02.847Z,12.60
2019-06-01T01:19:32.349Z,12.60
2019-06-01T01:22:03.480Z,12.60
2019-06-01T01:24:32.817Z,12.50
2019-06-01T01:27:02.545Z,12.50
2019-06-01T01:29:32.093Z,12.50
2019-06-01T01:32:01.463Z,12.50
2019-06-01T01:34:30.854Z,12.50
2019-06-01T01:37:00.326Z,12.50
2019-06-01T01:39:29.896Z,12.50
2019-06-01T01:41:59.326Z,12.50
2019-06-01T01:44:28.750Z,12.60
2019-06-01T01:46:59.057Z,12.60
2019-06-01T01:49:28.500Z,12.60
2019-06-01T01:51:58.170Z,12.70
2019-06-01T01:54:29.019Z,12.70
2019-06-01T01:56:58.419Z,12.80
2019-06-01T01:59:27.903Z,12.90
2019-06-01T02:01:58.651Z,12.90
2019-06-01T02:04:28.244Z,12.90
2019-06-01T02:06:58.475Z,13.00
2019-06-01T02:09:28.148Z,13.10
2019-06-01T02:11:57.740Z,13.10
2019-06-01T02:14:27.085Z,13.10
2019-06-01T02:16:58.009Z,13.10
2019-06-01T02:19:27.526Z,13.00
2019-06-01T02:21:57.020Z,13.00
2019-06-01T02:24:26.358Z,13.10
2019-06-01T02:26:57.129Z,13.00
2019-06-01T02:29:27.143Z,13.00
2019-06-01T02:31:56.699Z,13.00
2019-06-01T02:34:26.379Z,12.90
2019-06-01T02:36:56.519Z,12.90
2019-06-01T02:39:26.455Z,12.90
2019-06-01T02:41:56.791Z,12.80
2019-06-01T02:44:26.542Z,12.80
2019-06-01T02:46:57.038Z,12.80
2019-06-01T02:49:26.492Z,12.80
2019-06-01T02:51:57.117Z,12.80
2019-06-01T02:54:26.619Z,12.80
2019-06-01T02:56:55.982Z,12.70
2019-06-01T02:59:25.637Z,12.70
2019-06-01T03:02:00.229Z,12.70
2019-06-01T03:04:27.945Z,12.60
2019-06-01T03:07:00.039Z,12.60
2019-06-01T03:09:32.179Z,12.60
2019-06-01T03:12:04.301Z,12.50
2019-06-01T03:14:36.910Z,12.50
2019-06-01T03:17:07.969Z,12.50
2019-06-01T03:19:40.750Z,12.40
2019-06-01T03:22:12.254Z,12.40
2019-06-01T03:24:43.481Z,12.40
2019-06-01T03:27:15.544Z,12.40
2019-06-01T03:29:48.199Z,12.40
2019-06-01T03:32:33.789Z,12.40
2019-06-01T03:34:49.527Z,12.40
2019-06-01T03:37:19.196Z,12.40
2019-06-01T03:39:49.298Z,12.40
2019-06-01T03:42:19.691Z,12.40
2019-06-01T03:44:49.042Z,12.40
2019-06-01T03:47:18.806Z,12.40
2019-06-01T03:49:48.414Z,12.40
2019-06-01T03:52:19.057Z,12.40
2019-06-01T03:54:48.761Z,12.40
2019-06-01T03:57:18.251Z,12.30
2019-06-01T03:59:47.722Z,12.40
2019-06-01T04:02:17.152Z,12.30
2019-06-01T04:04:46.488Z,12.40
2019-06-01T04:07:17.539Z,12.40
2019-06-01T04:09:46.884Z,12.40
2019-06-01T04:12:16.207Z,12.40
2019-06-01T04:14:45.556Z,12.50
2019-06-01T04:17:15.116Z,12.50
2019-06-01T04:19:44.508Z,12.60
2019-06-01T04:22:13.910Z,12.60
2019-06-01T04:24:43.309Z,12.70
2019-06-01T04:27:12.727Z,12.80
2019-06-01T04:29:42.123Z,12.80
2019-06-01T04:32:12.829Z,12.90
2019-06-01T04:34:42.574Z,13.00
2019-06-01T04:37:13.252Z,13.00
2019-06-01T04:39:43.925Z,13.10
2019-06-01T04:42:14.022Z,13.20
2019-06-01T04:44:44.437Z,13.30
2019-06-01T04:47:14.553Z,13.30
2019-06-01T04:49:44.146Z,13.40
2019-06-01T04:52:15.131Z,13.40
2019-06-01T04:54:47.703Z,13.50
2019-06-01T04:57:17.406Z,13.50
2019-06-01T04:59:46.862Z,13.60
2019-06-01T05:02:16.218Z,13.70
2019-06-01T05:04:45.583Z,13.80
2019-06-01T05:07:15.527Z,14.00
2019-06-01T05:09:45.207Z,14.20
2019-06-01T05:12:15.552Z,14.30
2019-06-01T05:14:45.071Z,14.60
2019-06-01T05:17:15.024Z,14.70
2019-06-01T05:19:45.580Z,14.90
2019-06-01T05:22:15.076Z,15.10
2019-06-01T05:24:44.484Z,15.30
2019-06-01T05:27:15.151Z,15.50
2019-06-01T05:29:44.639Z,15.70
2019-06-01T05:32:14.645Z,15.90
2019-06-01T05:34:45.426Z,16.10
2019-06-01T05:37:16.575Z,16.30
2019-06-01T05:39:46.216Z,16.50
2019-06-01T05:42:16.903Z,16.80
2019-06-01T05:44:46.480Z,17.10
2019-06-01T05:47:16.263Z,17.40
2019-06-01T05:49:45.779Z,17.70
2019-06-01T05:52:16.601Z,18.10
2019-06-01T05:54:46.126Z,18.40
2019-06-01T05:57:16.720Z,18.90
2019-06-01T05:59:46.262Z,19.30
2019-06-01T06:02:15.589Z,19.70
2019-06-01T06:04:44.936Z,20.20
2019-06-01T06:07:14.753Z,20.50
2019-06-01T06:09:44.399Z,20.80
2019-06-01T06:12:15.313Z,21.20
2019-06-01T06:14:45.658Z,21.40
2019-06-01T06:17:17.412Z,21.60
2019-06-01T06:19:46.770Z,21.70
2019-06-01T06:22:16.233Z,21.80
2019-06-01T06:24:45.687Z,22.00
2019-06-01T06:27:15.169Z,22.10
2019-06-01T06:29:46.039Z,22.30
2019-06-01T06:32:15.662Z,22.60
2019-06-01T06:34:45.087Z,22.80
2019-06-01T06:37:15.542Z,23.00
2019-06-01T06:39:45.393Z,23.20
2019-06-01T06:42:16.017Z,23.40
2019-06-01T06:44:46.755Z,23.50
2019-06-01T06:47:16.691Z,23.60
2019-06-01T06:49:47.215Z,23.70
2019-06-01T06:52:17.444Z,23.80
2019-06-01T06:54:46.943Z,23.80
2019-06-01T06:57:16.504Z,24.00
2019-06-01T06:59:46.925Z,24.10
2019-06-01T07:02:16.737Z,24.20
2019-06-01T07:05:06.865Z,24.20
2019-06-01T07:07:37.855Z,24.30
2019-06-01T07:10:08.116Z,24.40
2019-06-01T07:12:37.549Z,24.50
2019-06-01T07:15:07.383Z,24.60
2019-06-01T07:17:39.736Z,24.70
2019-06-01T07:20:09.545Z,24.70
2019-06-01T07:22:39.085Z,24.80
2019-06-01T07:25:08.664Z,24.80
2019-06-01T07:27:38.022Z,24.90
2019-06-01T07:30:07.672Z,25.00
2019-06-01T07:32:37.224Z,25.10
2019-06-01T07:35:08.086Z,25.30
2019-06-01T07:37:37.463Z,25.50
2019-06-01T07:40:13.139Z,25.70
2019-06-01T07:42:39.276Z,25.80
2019-06-01T07:45:09.961Z,26.00
2019-06-01T07:47:39.515Z,26.10
2019-06-01T07:50:08.919Z,26.30
2019-06-01T07:52:38.262Z,26.40
2019-06-01T07:55:07.960Z,26.60
2019-06-01T07:57:37.437Z,26.90
2019-06-01T08:00:11.047Z,27.10
2019-06-01T08:02:40.449Z,27.50
2019-06-01T08:05:10.046Z,27.70
2019-06-01T08:07:40.008Z,27.90
2019-06-01T08:10:09.776Z,28.00
2019-06-01T08:12:39.278Z,28.00
2019-06-01T08:15:09.033Z,28.20
2019-06-01T08:17:38.527Z,28.40
2019-06-01T08:20:09.128Z,28.50
2019-06-01T08:22:38.711Z,28.60
2019-06-01T08:25:08.447Z,28.50
2019-06-01T08:27:37.902Z,28.40
2019-06-01T08:30:07.791Z,28.50
2019-06-01T08:32:38.780Z,28.50
2019-06-01T08:35:09.708Z,28.50
2019-06-01T08:37:39.697Z,28.50
2019-06-01T08:40:09.643Z,28.50
2019-06-01T08:42:39.094Z,28.50
2019-06-01T08:45:09.200Z,28.50
2019-06-01T08:47:38.700Z,28.50
2019-06-01T08:50:08.739Z,28.50
2019-06-01T08:52:38.251Z,28.70
2019-06-01T08:55:08.138Z,28.90
2019-06-01T08:57:37.467Z,29.20
2019-06-01T09:00:10.317Z,29.60
2019-06-01T09:02:39.780Z,30.00
2019-06-01T09:05:23.407Z,30.40
2019-06-01T09:07:40.226Z,30.60
2019-06-01T09:10:11.055Z,30.30
2019-06-01T09:12:40.560Z,30.20
2019-06-01T09:15:11.947Z,30.40
2019-06-01T09:17:41.418Z,30.70
2019-06-01T09:20:11.132Z,30.70
2019-06-01T09:22:40.528Z,30.50
2019-06-01T09:25:10.051Z,30.30
2019-06-01T09:27:40.046Z,30.40
2019-06-01T09:30:10.452Z,30.50
2019-06-01T09:32:40.107Z,30.80
2019-06-01T09:35:10.306Z,31.10
2019-06-01T09:37:39.639Z,31.30
2019-06-01T09:40:10.384Z,31.40
2019-06-01T09:42:39.763Z,31.20
2019-06-01T09:45:09.500Z,31.40
2019-06-01T09:47:38.896Z,31.50
2019-06-01T09:50:08.761Z,31.60
2019-06-01T09:52:38.138Z,31.60
2019-06-01T09:55:07.924Z,31.70
2019-06-01T09:57:38.337Z,31.90
2019-06-01T10:00:10.144Z,32.00
2019-06-01T10:02:39.756Z,32.00
2019-06-01T10:05:09.922Z,32.20
2019-06-01T10:07:39.559Z,32.40
2019-06-01T10:10:09.395Z,32.60
2019-06-01T10:12:38.796Z,32.80
2019-06-01T10:15:09.092Z,33.00
2019-06-01T10:17:39.020Z,33.10
2019-06-01T10:20:10.563Z,33.60
2019-06-01T10:22:39.974Z,33.90
2019-06-01T10:25:09.822Z,33.70
2019-06-01T10:27:39.140Z,33.60
2019-06-01T10:30:09.449Z,33.30
2019-06-01T10:32:39.918Z,33.00
2019-06-01T10:35:09.405Z,32.90
2019-06-01T10:37:39.631Z,33.00
2019-06-01T10:40:10.013Z,33.20
2019-06-01T10:42:39.881Z,33.50
2019-06-01T10:45:09.911Z,34.00
2019-06-01T10:47:40.132Z,34.20
2019-06-01T10:50:09.832Z,34.00
2019-06-01T10:52:40.389Z,34.00
2019-06-01T10:55:10.348Z,34.10
2019-06-01T10:57:40.638Z,34.20
2019-06-01T11:00:11.839Z,34.30
2019-06-01T11:02:41.405Z,34.20
2019-06-01T11:05:11.132Z,33.90
2019-06-01T11:07:41.034Z,34.00
2019-06-01T11:10:11.661Z,34.30
2019-06-01T11:12:41.169Z,34.40
2019-06-01T11:15:11.743Z,34.00
2019-06-01T11:17:41.290Z,33.40
2019-06-01T11:20:10.957Z,33.00
2019-06-01T11:22:41.483Z,33.00
2019-06-01T11:25:11.737Z,32.90
2019-06-01T11:27:41.858Z,32.70
2019-06-01T11:30:12.154Z,32.90
2019-06-01T11:32:43.356Z,33.40
2019-06-01T11:35:13.220Z,33.80
2019-06-01T11:37:44.531Z,34.20
2019-06-01T11:40:14.279Z,34.60
2019-06-01T11:42:44.954Z,34.50
2019-06-01T11:45:14.684Z,34.10
2019-06-01T11:47:45.105Z,34.10
2019-06-01T11:50:14.947Z,34.30
2019-06-01T11:52:45.617Z,34.90
2019-06-01T11:55:15.145Z,35.30
2019-06-01T11:57:45.793Z,35.60
2019-06-01T12:00:18.562Z,35.70
2019-06-01T12:02:48.222Z,36.20
2019-06-01T12:05:17.738Z,36.60
2019-06-01T12:07:47.218Z,36.50
2019-06-01T12:10:16.665Z,36.60
2019-06-01T12:12:46.555Z,36.80
2019-06-01T12:15:16.104Z,36.90
2019-06-01T12:17:47.382Z,36.90
2019-06-01T12:20:17.256Z,36.60
2019-06-01T12:22:47.214Z,36.70
2019-06-01T12:25:17.492Z,37.00
2019-06-01T12:27:48.218Z,37.40
2019-06-01T12:30:18.105Z,37.70
2019-06-01T12:32:48.838Z,37.90
2019-06-01T12:35:19.404Z,37.80
2019-06-01T12:38:04.548Z,37.10
2019-06-01T12:40:21.115Z,36.50
2019-06-01T12:42:51.855Z,36.60
2019-06-01T12:45:23.361Z,37.00
2019-06-01T12:47:58.002Z,37.20
2019-06-01T12:50:24.404Z,37.20
2019-06-01T12:52:53.937Z,36.80
2019-06-01T12:55:23.268Z,36.80
2019-06-01T12:57:52.660Z,36.60
2019-06-01T13:00:22.248Z,36.90
2019-06-01T13:03:03.805Z,37.40
2019-06-01T13:05:22.708Z,37.80
2019-06-01T13:08:00.703Z,38.30
2019-06-01T13:10:23.139Z,38.40
2019-06-01T13:12:52.559Z,38.00
2019-06-01T13:15:22.224Z,37.70
2019-06-01T13:17:51.593Z,37.70
2019-06-01T13:20:21.124Z,37.50
2019-06-01T13:22:51.848Z,37.40
2019-06-01T13:25:21.569Z,37.40
2019-06-01T13:27:52.595Z,37.70
2019-06-01T13:30:22.158Z,37.90
2019-06-01T13:32:52.759Z,38.20
2019-06-01T13:35:22.230Z,38.30
2019-06-01T13:38:10.694Z,38.60
2019-06-01T13:40:23.480Z,38.30
2019-06-01T13:42:53.369Z,38.30
2019-06-01T13:45:22.759Z,38.30
2019-06-01T13:47:52.099Z,38.20
2019-06-01T13:50:21.497Z,38.00
2019-06-01T13:52:52.064Z,37.70
2019-06-01T13:55:21.729Z,37.40
2019-06-01T13:57:52.344Z,37.30
2019-06-01T14:00:30.107Z,37.10
2019-06-01T14:02:57.181Z,36.80
2019-06-01T14:05:25.582Z,36.50
2019-06-01T14:07:55.751Z,36.50
2019-06-01T14:10:25.158Z,36.90
2019-06-01T14:12:55.584Z,37.20
2019-06-01T14:15:25.265Z,37.10
2019-06-01T14:17:54.703Z,36.60
2019-06-01T14:20:24.267Z,36.20
2019-06-01T14:22:54.130Z,36.20
2019-06-01T14:25:23.553Z,36.40
2019-06-01T14:27:54.305Z,36.70
2019-06-01T14:30:24.219Z,37.20
2019-06-01T14:32:54.437Z,37.60
2019-06-01T14:35:24.046Z,38.10
2019-06-01T14:37:53.783Z,38.30
2019-06-01T14:40:24.373Z,38.50
2019-06-01T14:42:55.662Z,38.50
2019-06-01T14:45:25.206Z,38.60
2019-06-01T14:47:55.559Z,38.50
2019-06-01T14:50:26.061Z,37.90
2019-06-01T14:52:57.914Z,37.50
2019-06-01T14:55:27.426Z,37.00
2019-06-01T14:57:58.329Z,36.70
2019-06-01T15:00:28.007Z,36.40
2019-06-01T15:02:58.413Z,36.20
2019-06-01T15:05:27.849Z,36.20
2019-06-01T15:07:57.560Z,36.60
2019-06-01T15:10:28.244Z,36.90
2019-06-01T15:13:02.916Z,37.20
2019-06-01T15:15:28.629Z,37.40
2019-06-01T15:17:57.950Z,37.60
2019-06-01T15:20:27.482Z,37.70
2019-06-01T15:22:56.811Z,37.80
2019-06-01T15:25:26.139Z,37.60
2019-06-01T15:27:56.760Z,37.40
2019-06-01T15:30:26.630Z,37.00
2019-06-01T15:32:56.232Z,36.80
2019-06-01T15:35:25.626Z,36.30
2019-06-01T15:37:58.941Z,36.20
2019-06-01T15:40:25.983Z,36.00
2019-06-01T15:42:55.324Z,35.70
2019-06-01T15:45:24.815Z,35.30
2019-06-01T15:47:55.447Z,34.90
2019-06-01T15:50:24.945Z,34.80
2019-06-01T15:52:54.934Z,34.60
2019-06-01T15:55:24.724Z,34.50
2019-06-01T15:57:54.323Z,34.40
2019-06-01T16:00:23.765Z,34.40
2019-06-01T16:02:54.774Z,34.50
2019-06-01T16:05:24.293Z,34.60
2019-06-01T16:07:55.108Z,34.70
2019-06-01T16:10:24.598Z,34.70
2019-06-01T16:12:55.249Z,34.60
2019-06-01T16:15:24.777Z,34.30
2019-06-01T16:17:54.108Z,33.90
2019-06-01T16:20:23.534Z,33.30
2019-06-01T16:22:53.997Z,32.80
2019-06-01T16:25:23.367Z,32.40
2019-06-01T16:27:52.912Z,32.00
2019-06-01T16:30:22.758Z,31.80
2019-06-01T16:32:52.223Z,31.50
2019-06-01T16:35:21.567Z,31.30
2019-06-01T16:37:51.049Z,31.10
2019-06-01T16:40:20.404Z,30.70
2019-06-01T16:42:49.876Z,30.40
2019-06-01T16:45:20.812Z,30.10
2019-06-01T16:47:50.323Z,29.90
2019-06-01T16:50:19.884Z,29.80
2019-06-01T16:52:52.224Z,29.80
2019-06-01T16:55:21.723Z,29.70
2019-06-01T16:57:51.138Z,29.60
2019-06-01T17:00:21.202Z,29.50
2019-06-01T17:02:50.758Z,29.40
2019-06-01T17:05:20.158Z,29.40
2019-06-01T17:07:51.675Z,29.30
2019-06-01T17:10:26.106Z,29.20
2019-06-01T17:12:52.470Z,29.10
2019-06-01T17:15:22.083Z,29.10
2019-06-01T17:17:51.607Z,29.00
2019-06-01T17:20:40.539Z,28.80
2019-06-01T17:23:24.170Z,28.80
2019-06-01T17:25:41.251Z,28.70
2019-06-01T17:28:10.955Z,28.60
2019-06-01T17:30:40.394Z,28.50
2019-06-01T17:33:10.002Z,28.50
2019-06-01T17:35:39.559Z,28.50
2019-06-01T17:38:09.207Z,28.40
2019-06-01T17:40:42.810Z,28.30
2019-06-01T17:43:10.764Z,28.30
2019-06-01T17:45:40.115Z,28.10
2019-06-01T17:48:21.689Z,28.10
2019-06-01T17:50:40.728Z,28.00
2019-06-01T17:53:10.236Z,27.90
2019-06-01T17:55:39.992Z,27.70
2019-06-01T17:58:10.143Z,27.70
2019-06-01T18:00:40.660Z,27.50
2019-06-01T18:03:10.300Z,27.50
2019-06-01T18:05:39.898Z,27.40
2019-06-01T18:08:10.344Z,27.40
2019-06-01T18:10:53.299Z,27.30
2019-06-01T18:13:12.932Z,27.30
2019-06-01T18:15:42.595Z,27.20
2019-06-01T18:18:12.849Z,27.10
2019-06-01T18:20:42.415Z,27.00
2019-06-01T18:23:13.198Z,26.90
2019-06-01T18:25:42.920Z,26.80
2019-06-01T18:28:16.164Z,26.80
2019-06-01T18:30:44.427Z,26.70
2019-06-01T18:33:13.914Z,26.60
2019-06-01T18:35:43.259Z,26.50
2019-06-01T18:38:13.399Z,26.40
2019-06-01T18:40:43.710Z,26.30
2019-06-01T18:43:16.201Z,26.20
2019-06-01T18:45:48.294Z,26.10
2019-06-01T18:48:20.047Z,26.00
2019-06-01T18:50:49.471Z,25.90
2019-06-01T18:53:18.872Z,25.80
2019-06-01T18:55:48.212Z,25.80
2019-06-01T18:58:17.545Z,25.70
2019-06-01T19:00:47.026Z,25.60
2019-06-01T19:03:16.643Z,25.60
2019-06-01T19:05:46.943Z,25.50
2019-06-01T19:08:17.209Z,25.40
2019-06-01T19:10:48.247Z,25.30
2019-06-01T19:13:18.397Z,25.30
2019-06-01T19:15:47.989Z,25.10
2019-06-01T19:18:17.520Z,25.00
2019-06-01T19:20:46.930Z,24.80
2019-06-01T19:23:20.400Z,24.70
2019-06-01T19:25:48.467Z,24.60
2019-06-01T19:28:18.044Z,24.50
2019-06-01T19:30:47.594Z,24.40
2019-06-01T19:33:19.495Z,24.30
2019-06-01T19:35:51.951Z,24.20
2019-06-01T19:38:21.661Z,24.10
2019-06-01T19:40:53.249Z,23.90
2019-06-01T19:43:23.356Z,23.80
2019-06-01T19:45:52.976Z,23.70
2019-06-01T19:48:22.483Z,23.60
2019-06-01T19:50:51.838Z,23.50
2019-06-01T19:53:21.250Z,23.40
2019-06-01T19:55:50.680Z,23.30
2019-06-01T19:58:20.403Z,23.20
2019-06-01T20:00:49.875Z,23.10
2019-06-01T20:03:22.135Z,23.10
2019-06-01T20:05:52.434Z,23.00
2019-06-01T20:08:22.641Z,22.90
2019-06-01T20:10:52.190Z,22.90
2019-06-01T20:13:21.553Z,22.80
2019-06-01T20:15:52.151Z,22.70
2019-06-01T20:18:22.900Z,22.60
2019-06-01T20:20:52.484Z,22.50
2019-06-01T20:23:22.117Z,22.50
2019-06-01T20:25:51.602Z,22.30
2019-06-01T20:28:21.676Z,22.30
2019-06-01T20:30:51.651Z,22.20
2019-06-01T20:33:22.582Z,22.10
2019-06-01T20:35:52.405Z,22.00
2019-06-01T20:38:23.399Z,22.00
2019-06-01T20:40:56.253Z,21.90
2019-06-01T20:43:25.727Z,21.80
2019-06-01T20:45:57.124Z,21.80
2019-06-01T20:48:26.734Z,21.70
2019-06-01T20:50:56.123Z,21.70
2019-06-01T20:53:25.672Z,21.60
2019-06-01T20:55:55.601Z,21.60
2019-06-01T20:58:26.769Z,21.50
2019-06-01T21:00:56.242Z,21.50
2019-06-01T21:03:25.675Z,21.40
2019-06-01T21:05:55.127Z,21.30
2019-06-01T21:08:24.600Z,21.20
2019-06-01T21:10:55.619Z,21.20
2019-06-01T21:13:25.156Z,21.10
2019-06-01T21:15:54.780Z,21.00
2019-06-01T21:18:25.276Z,20.90
2019-06-01T21:20:54.832Z,20.90
2019-06-01T21:23:25.401Z,20.80
2019-06-01T21:25:56.615Z,20.80
2019-06-01T21:28:26.266Z,20.70
2019-06-01T21:30:55.812Z,20.70
2019-06-01T21:33:28.202Z,20.60
2019-06-01T21:35:57.266Z,20.50
2019-06-01T21:38:26.654Z,20.50
2019-06-01T21:40:59.928Z,20.50
2019-06-01T21:43:35.197Z,20.50
2019-06-01T21:46:00.380Z,20.50
2019-06-01T21:48:32.751Z,20.40
2019-06-01T21:51:02.815Z,20.40
2019-06-01T21:53:32.631Z,20.30
2019-06-01T21:56:02.201Z,20.30
2019-06-01T21:58:31.550Z,20.30
2019-06-01T22:01:01.146Z,20.20
2019-06-01T22:03:31.925Z,20.20
2019-06-01T22:06:01.585Z,20.10
2019-06-01T22:08:30.988Z,20.00
2019-06-01T22:11:00.418Z,20.00
2019-06-01T22:13:29.959Z,19.90
2019-06-01T22:15:59.312Z,19.80
2019-06-01T22:18:29.051Z,19.80
2019-06-01T22:21:00.379Z,19.70
2019-06-01T22:23:31.001Z,19.70
2019-06-01T22:26:00.572Z,19.60
2019-06-01T22:28:30.984Z,19.50
2019-06-01T22:31:00.290Z,19.50
2019-06-01T22:33:29.657Z,19.50
2019-06-01T22:35:59.049Z,19.40
2019-06-01T22:38:29.977Z,19.40
2019-06-01T22:40:59.548Z,19.40
2019-06-01T22:43:44.572Z,19.30
2019-06-01T22:46:00.280Z,19.30
2019-06-01T22:48:29.635Z,19.20
2019-06-01T22:51:00.008Z,19.20
2019-06-01T22:53:29.334Z,19.10
2019-06-01T22:55:58.678Z,19.10
2019-06-01T22:58:29.501Z,19.00
2019-06-01T23:00:59.381Z,19.00
2019-06-01T23:03:30.177Z,19.00
2019-06-01T23:05:59.782Z,18.90
2019-06-01T23:08:29.462Z,18.90
2019-06-01T23:10:59.046Z,18.80
2019-06-01T23:13:28.416Z,18.80
2019-06-01T23:15:58.022Z,18.80
2019-06-01T23:18:28.058Z,18.80
2019-06-01T23:20:57.405Z,18.70
2019-06-01T23:23:28.038Z,18.70
2019-06-01T23:25:57.612Z,18.70
2019-06-01T23:28:28.422Z,18.60
2019-06-01T23:30:58.111Z,18.60
2019-06-01T23:33:27.429Z,18.60
2019-06-01T23:35:57.165Z,18.50
2019-06-01T23:38:26.653Z,18.50
2019-06-01T23:40:56.495Z,18.50
2019-06-01T23:43:26.943Z,18.50
2019-06-01T23:45:56.480Z,18.40
2019-06-01T23:48:27.133Z,18.40
2019-06-01T23:50:56.647Z,18.30
2019-06-01T23:53:27.181Z,18.30
2019-06-01T23:55:56.974Z,18.30
2019-06-01T23:58:26.292Z,18.20
